sensor_id;sensor_type;location;lat;lon;timestamp;P1;durP1;ratioP1;P2;durP2;ratioP2
57985;SDS011;43788;42.670;23.330;2023-03-23T00:01:03;2.70;;;2.38;;
57985;SDS011;43788;42.670;23.330;2023-03-23T00:03:29;3.22;;;2.53;;
57985;SDS011;43788;42.670;23.330;2023-03-23T00:05:59;2.20;;;2.00;;
57985;SDS011;43788;42.670;23.330;2023-03-23T00:08:28;2.63;;;2.42;;
57985;SDS011;43788;42.670;23.330;2023-03-23T00:10:53;3.63;;;2.78;;
57985;SDS011;43788;42.670;23.330;2023-03-23T00:13:27;2.40;;;2.20;;
57985;SDS011;43788;42.670;23.330;2023-03-23T00:15:53;3.42;;;2.70;;
57985;SDS011;43788;42.670;23.330;2023-03-23T00:18:22;2.70;;;2.20;;
57985;SDS011;43788;42.670;23.330;2023-03-23T00:20:55;3.42;;;3.13;;
57985;SDS011;43788;42.670;23.330;2023-03-23T00:23:25;2.75;;;2.28;;
57985;SDS011;43788;42.670;23.330;2023-03-23T00:25:54;2.55;;;2.35;;
57985;SDS011;43788;42.670;23.330;2023-03-23T00:28:25;2.70;;;2.17;;
57985;SDS011;43788;42.670;23.330;2023-03-23T00:31:10;2.75;;;2.25;;
57985;SDS011;43788;42.670;23.330;2023-03-23T00:33:36;2.33;;;2.13;;
57985;SDS011;43788;42.670;23.330;2023-03-23T00:39:08;2.05;;;1.95;;
57985;SDS011;43788;42.670;23.330;2023-03-23T00:41:33;2.40;;;2.20;;
57985;SDS011;43788;42.670;23.330;2023-03-23T00:44:01;2.30;;;1.77;;
57985;SDS011;43788;42.670;23.330;2023-03-23T00:46:27;2.50;;;2.30;;
57985;SDS011;43788;42.670;23.330;2023-03-23T00:48:54;2.70;;;2.00;;
57985;SDS011;43788;42.670;23.330;2023-03-23T00:51:22;1.90;;;1.80;;
57985;SDS011;43788;42.670;23.330;2023-03-23T00:53:48;2.63;;;2.22;;
57985;SDS011;43788;42.670;23.330;2023-03-23T00:56:14;3.13;;;2.35;;
57985;SDS011;43788;42.670;23.330;2023-03-23T00:58:40;2.42;;;2.08;;
57985;SDS011;43788;42.670;23.330;2023-03-23T01:01:06;2.38;;;2.17;;
57985;SDS011;43788;42.670;23.330;2023-03-23T01:03:32;2.58;;;2.38;;
57985;SDS011;43788;42.670;23.330;2023-03-23T01:06:04;2.95;;;2.75;;
57985;SDS011;43788;42.670;23.330;2023-03-23T01:08:31;2.38;;;2.17;;
57985;SDS011;43788;42.670;23.330;2023-03-23T01:11:04;2.25;;;2.05;;
57985;SDS011;43788;42.670;23.330;2023-03-23T01:13:30;2.63;;;2.30;;
57985;SDS011;43788;42.670;23.330;2023-03-23T01:15:55;2.20;;;2.00;;
57985;SDS011;43788;42.670;23.330;2023-03-23T01:18:21;2.83;;;2.63;;
57985;SDS011;43788;42.670;23.330;2023-03-23T01:20:46;3.00;;;2.75;;
57985;SDS011;43788;42.670;23.330;2023-03-23T01:23:12;3.25;;;2.95;;
57985;SDS011;43788;42.670;23.330;2023-03-23T01:25:37;2.67;;;2.47;;
57985;SDS011;43788;42.670;23.330;2023-03-23T01:28:03;7.82;;;3.10;;
57985;SDS011;43788;42.670;23.330;2023-03-23T01:30:29;3.20;;;3.00;;
57985;SDS011;43788;42.670;23.330;2023-03-23T01:32:55;3.40;;;3.00;;
57985;SDS011;43788;42.670;23.330;2023-03-23T01:35:21;3.35;;;2.85;;
57985;SDS011;43788;42.670;23.330;2023-03-23T01:37:47;3.97;;;3.17;;
57985;SDS011;43788;42.670;23.330;2023-03-23T01:40:12;2.70;;;2.50;;
57985;SDS011;43788;42.670;23.330;2023-03-23T01:42:38;3.00;;;2.70;;
57985;SDS011;43788;42.670;23.330;2023-03-23T01:48:09;2.80;;;2.50;;
57985;SDS011;43788;42.670;23.330;2023-03-23T01:50:41;3.13;;;2.83;;
57985;SDS011;43788;42.670;23.330;2023-03-23T01:53:12;2.72;;;2.53;;
57985;SDS011;43788;42.670;23.330;2023-03-23T01:55:39;2.53;;;2.33;;
57985;SDS011;43788;42.670;23.330;2023-03-23T01:58:06;6.60;;;2.78;;
57985;SDS011;43788;42.670;23.330;2023-03-23T02:00:33;2.50;;;2.30;;
57985;SDS011;43788;42.670;23.330;2023-03-23T02:02:59;1.67;;;1.58;;
57985;SDS011;43788;42.670;23.330;2023-03-23T02:08:18;2.25;;;1.80;;
57985;SDS011;43788;42.670;23.330;2023-03-23T02:10:44;2.30;;;2.10;;
57985;SDS011;43788;42.670;23.330;2023-03-23T02:13:10;2.30;;;2.10;;
57985;SDS011;43788;42.670;23.330;2023-03-23T02:15:39;2.25;;;2.03;;
57985;SDS011;43788;42.670;23.330;2023-03-23T02:22:07;2.05;;;1.85;;
57985;SDS011;43788;42.670;23.330;2023-03-23T02:24:50;1.98;;;1.88;;
57985;SDS011;43788;42.670;23.330;2023-03-23T02:35:54;1.75;;;1.63;;
57985;SDS011;43788;42.670;23.330;2023-03-23T02:39:05;2.05;;;1.95;;
57985;SDS011;43788;42.670;23.330;2023-03-23T02:41:21;1.75;;;1.65;;
57985;SDS011;43788;42.670;23.330;2023-03-23T02:43:48;3.15;;;2.00;;
57985;SDS011;43788;42.670;23.330;2023-03-23T02:46:14;1.90;;;1.80;;
57985;SDS011;43788;42.670;23.330;2023-03-23T02:48:40;2.17;;;1.98;;
57985;SDS011;43788;42.670;23.330;2023-03-23T02:51:06;1.80;;;1.70;;
57985;SDS011;43788;42.670;23.330;2023-03-23T02:53:33;1.40;;;1.30;;
57985;SDS011;43788;42.670;23.330;2023-03-23T02:56:02;2.42;;;2.22;;
57985;SDS011;43788;42.670;23.330;2023-03-23T02:58:30;3.25;;;2.38;;
57985;SDS011;43788;42.670;23.330;2023-03-23T03:00:55;2.15;;;2.00;;
57985;SDS011;43788;42.670;23.330;2023-03-23T03:03:25;2.30;;;2.10;;
57985;SDS011;43788;42.670;23.330;2023-03-23T03:08:52;2.45;;;2.25;;
57985;SDS011;43788;42.670;23.330;2023-03-23T03:11:22;3.53;;;3.13;;
57985;SDS011;43788;42.670;23.330;2023-03-23T03:16:40;2.38;;;2.17;;
57985;SDS011;43788;42.670;23.330;2023-03-23T03:19:11;2.30;;;2.10;;
57985;SDS011;43788;42.670;23.330;2023-03-23T03:21:41;2.15;;;1.95;;
57985;SDS011;43788;42.670;23.330;2023-03-23T03:24:08;1.75;;;1.52;;
57985;SDS011;43788;42.670;23.330;2023-03-23T03:26:36;2.28;;;2.08;;
57985;SDS011;43788;42.670;23.330;2023-03-23T03:29:06;2.13;;;2.03;;
57985;SDS011;43788;42.670;23.330;2023-03-23T03:31:34;1.63;;;1.52;;
57985;SDS011;43788;42.670;23.330;2023-03-23T03:34:02;2.22;;;2.05;;
57985;SDS011;43788;42.670;23.330;2023-03-23T03:36:28;1.45;;;1.35;;
57985;SDS011;43788;42.670;23.330;2023-03-23T03:39:00;2.05;;;1.85;;
57985;SDS011;43788;42.670;23.330;2023-03-23T03:41:29;2.42;;;2.22;;
57985;SDS011;43788;42.670;23.330;2023-03-23T03:43:55;2.13;;;1.92;;
57985;SDS011;43788;42.670;23.330;2023-03-23T03:46:20;1.80;;;1.70;;
57985;SDS011;43788;42.670;23.330;2023-03-23T03:48:46;2.30;;;2.10;;
57985;SDS011;43788;42.670;23.330;2023-03-23T03:51:11;2.20;;;2.10;;
57985;SDS011;43788;42.670;23.330;2023-03-23T03:53:37;2.20;;;2.00;;
57985;SDS011;43788;42.670;23.330;2023-03-23T03:56:02;3.33;;;2.35;;
57985;SDS011;43788;42.670;23.330;2023-03-23T03:58:29;2.83;;;2.53;;
57985;SDS011;43788;42.670;23.330;2023-03-23T04:00:59;1.95;;;1.85;;
57985;SDS011;43788;42.670;23.330;2023-03-23T04:03:25;2.30;;;2.10;;
57985;SDS011;43788;42.670;23.330;2023-03-23T04:05:52;1.70;;;1.60;;
57985;SDS011;43788;42.670;23.330;2023-03-23T04:08:22;2.33;;;2.13;;
57985;SDS011;43788;42.670;23.330;2023-03-23T04:10:48;2.75;;;2.20;;
57985;SDS011;43788;42.670;23.330;2023-03-23T04:13:13;1.85;;;1.73;;
57985;SDS011;43788;42.670;23.330;2023-03-23T04:15:40;2.78;;;2.45;;
57985;SDS011;43788;42.670;23.330;2023-03-23T04:18:05;2.45;;;2.25;;
57985;SDS011;43788;42.670;23.330;2023-03-23T04:20:31;4.88;;;1.70;;
57985;SDS011;43788;42.670;23.330;2023-03-23T04:22:57;2.08;;;1.98;;
57985;SDS011;43788;42.670;23.330;2023-03-23T04:25:25;2.17;;;1.80;;
57985;SDS011;43788;42.670;23.330;2023-03-23T04:27:50;1.90;;;1.80;;
57985;SDS011;43788;42.670;23.330;2023-03-23T04:30:20;1.92;;;1.75;;
57985;SDS011;43788;42.670;23.330;2023-03-23T04:32:52;1.65;;;1.50;;
57985;SDS011;43788;42.670;23.330;2023-03-23T04:35:22;1.35;;;1.25;;
57985;SDS011;43788;42.670;23.330;2023-03-23T04:37:51;3.47;;;1.70;;
57985;SDS011;43788;42.670;23.330;2023-03-23T04:40:17;1.50;;;1.40;;
57985;SDS011;43788;42.670;23.330;2023-03-23T04:42:46;1.33;;;1.23;;
57985;SDS011;43788;42.670;23.330;2023-03-23T04:45:15;1.67;;;1.58;;
57985;SDS011;43788;42.670;23.330;2023-03-23T04:47:46;1.60;;;1.50;;
57985;SDS011;43788;42.670;23.330;2023-03-23T04:50:18;2.22;;;2.05;;
57985;SDS011;43788;42.670;23.330;2023-03-23T04:52:46;1.45;;;1.35;;
57985;SDS011;43788;42.670;23.330;2023-03-23T04:55:12;1.30;;;1.20;;
57985;SDS011;43788;42.670;23.330;2023-03-23T04:57:39;1.83;;;1.73;;
57985;SDS011;43788;42.670;23.330;2023-03-23T05:00:05;1.08;;;1.08;;
57985;SDS011;43788;42.670;23.330;2023-03-23T05:02:37;0.80;;;0.80;;
57985;SDS011;43788;42.670;23.330;2023-03-23T05:05:07;1.08;;;1.05;;
57985;SDS011;43788;42.670;23.330;2023-03-23T05:07:33;1.30;;;1.23;;
57985;SDS011;43788;42.670;23.330;2023-03-23T05:09:58;1.50;;;1.40;;
57985;SDS011;43788;42.670;23.330;2023-03-23T05:12:24;1.83;;;1.52;;
57985;SDS011;43788;42.670;23.330;2023-03-23T05:14:50;1.10;;;1.00;;
57985;SDS011;43788;42.670;23.330;2023-03-23T05:17:15;1.60;;;1.50;;
57985;SDS011;43788;42.670;23.330;2023-03-23T05:19:43;0.95;;;0.95;;
57985;SDS011;43788;42.670;23.330;2023-03-23T05:22:18;0.98;;;0.93;;
57985;SDS011;43788;42.670;23.330;2023-03-23T05:24:45;1.38;;;1.00;;
57985;SDS011;43788;42.670;23.330;2023-03-23T05:27:11;1.05;;;1.02;;
57985;SDS011;43788;42.670;23.330;2023-03-23T05:29:37;1.20;;;1.15;;
57985;SDS011;43788;42.670;23.330;2023-03-23T05:32:05;1.27;;;1.23;;
57985;SDS011;43788;42.670;23.330;2023-03-23T05:34:34;0.88;;;0.88;;
57985;SDS011;43788;42.670;23.330;2023-03-23T05:37:00;1.45;;;1.33;;
57985;SDS011;43788;42.670;23.330;2023-03-23T05:39:30;1.17;;;1.08;;
57985;SDS011;43788;42.670;23.330;2023-03-23T05:41:57;0.88;;;0.88;;
57985;SDS011;43788;42.670;23.330;2023-03-23T05:44:25;1.58;;;1.17;;
57985;SDS011;43788;42.670;23.330;2023-03-23T05:46:51;1.50;;;1.40;;
57985;SDS011;43788;42.670;23.330;2023-03-23T05:49:17;1.42;;;1.33;;
57985;SDS011;43788;42.670;23.330;2023-03-23T05:51:43;1.52;;;1.42;;
57985;SDS011;43788;42.670;23.330;2023-03-23T05:54:09;3.90;;;1.15;;
57985;SDS011;43788;42.670;23.330;2023-03-23T05:56:35;2.05;;;1.42;;
57985;SDS011;43788;42.670;23.330;2023-03-23T05:59:01;1.30;;;1.20;;
57985;SDS011;43788;42.670;23.330;2023-03-23T06:01:27;1.13;;;1.10;;
57985;SDS011;43788;42.670;23.330;2023-03-23T06:03:55;1.05;;;0.95;;
57985;SDS011;43788;42.670;23.330;2023-03-23T06:06:27;1.50;;;1.40;;
57985;SDS011;43788;42.670;23.330;2023-03-23T06:08:54;1.58;;;1.48;;
57985;SDS011;43788;42.670;23.330;2023-03-23T06:11:20;1.88;;;1.55;;
57985;SDS011;43788;42.670;23.330;2023-03-23T06:13:47;1.70;;;1.60;;
57985;SDS011;43788;42.670;23.330;2023-03-23T06:16:13;2.40;;;2.20;;
57985;SDS011;43788;42.670;23.330;2023-03-23T06:18:41;3.50;;;2.22;;
57985;SDS011;43788;42.670;23.330;2023-03-23T06:21:08;2.03;;;1.60;;
57985;SDS011;43788;42.670;23.330;2023-03-23T06:23:36;1.85;;;1.75;;
57985;SDS011;43788;42.670;23.330;2023-03-23T06:26:05;1.63;;;1.52;;
57985;SDS011;43788;42.670;23.330;2023-03-23T06:28:32;1.42;;;1.33;;
57985;SDS011;43788;42.670;23.330;2023-03-23T06:31:02;2.85;;;1.70;;
57985;SDS011;43788;42.670;23.330;2023-03-23T06:33:31;1.80;;;1.42;;
57985;SDS011;43788;42.670;23.330;2023-03-23T06:35:59;1.67;;;1.58;;
57985;SDS011;43788;42.670;23.330;2023-03-23T06:38:26;1.65;;;1.55;;
57985;SDS011;43788;42.670;23.330;2023-03-23T06:40:52;3.42;;;1.83;;
57985;SDS011;43788;42.670;23.330;2023-03-23T06:43:18;2.15;;;1.88;;
57985;SDS011;43788;42.670;23.330;2023-03-23T06:45:44;3.25;;;1.73;;
57985;SDS011;43788;42.670;23.330;2023-03-23T06:48:10;1.75;;;1.65;;
57985;SDS011;43788;42.670;23.330;2023-03-23T06:50:37;1.77;;;1.67;;
57985;SDS011;43788;42.670;23.330;2023-03-23T06:53:02;2.55;;;1.77;;
57985;SDS011;43788;42.670;23.330;2023-03-23T06:55:28;1.95;;;1.85;;
57985;SDS011;43788;42.670;23.330;2023-03-23T06:57:53;4.00;;;2.08;;
57985;SDS011;43788;42.670;23.330;2023-03-23T07:00:19;2.42;;;2.13;;
57985;SDS011;43788;42.670;23.330;2023-03-23T07:02:46;2.60;;;2.10;;
57985;SDS011;43788;42.670;23.330;2023-03-23T07:05:12;2.25;;;2.05;;
57985;SDS011;43788;42.670;23.330;2023-03-23T07:07:38;2.50;;;1.88;;
57985;SDS011;43788;42.670;23.330;2023-03-23T07:10:05;2.13;;;2.03;;
57985;SDS011;43788;42.670;23.330;2023-03-23T07:12:33;3.67;;;2.22;;
57985;SDS011;43788;42.670;23.330;2023-03-23T07:15:00;3.40;;;2.13;;
57985;SDS011;43788;42.670;23.330;2023-03-23T07:17:29;2.13;;;1.95;;
57985;SDS011;43788;42.670;23.330;2023-03-23T07:19:54;3.53;;;1.77;;
57985;SDS011;43788;42.670;23.330;2023-03-23T07:22:20;1.52;;;1.42;;
57985;SDS011;43788;42.670;23.330;2023-03-23T07:24:46;2.55;;;2.35;;
57985;SDS011;43788;42.670;23.330;2023-03-23T07:27:13;5.38;;;2.15;;
57985;SDS011;43788;42.670;23.330;2023-03-23T07:29:39;2.05;;;1.95;;
57985;SDS011;43788;42.670;23.330;2023-03-23T07:32:06;2.13;;;2.03;;
57985;SDS011;43788;42.670;23.330;2023-03-23T07:34:33;2.13;;;2.03;;
57985;SDS011;43788;42.670;23.330;2023-03-23T07:36:59;2.95;;;2.38;;
57985;SDS011;43788;42.670;23.330;2023-03-23T07:39:26;2.38;;;2.10;;
57985;SDS011;43788;42.670;23.330;2023-03-23T07:41:51;2.97;;;2.40;;
57985;SDS011;43788;42.670;23.330;2023-03-23T07:44:18;5.32;;;2.03;;
57985;SDS011;43788;42.670;23.330;2023-03-23T07:46:43;2.42;;;2.25;;
57985;SDS011;43788;42.670;23.330;2023-03-23T07:49:09;2.60;;;2.38;;
57985;SDS011;43788;42.670;23.330;2023-03-23T07:51:35;2.10;;;1.90;;
57985;SDS011;43788;42.670;23.330;2023-03-23T07:54:03;4.57;;;2.47;;
57985;SDS011;43788;42.670;23.330;2023-03-23T07:56:29;2.67;;;2.47;;
57985;SDS011;43788;42.670;23.330;2023-03-23T07:58:55;2.58;;;2.25;;
57985;SDS011;43788;42.670;23.330;2023-03-23T08:01:20;2.10;;;1.90;;
57985;SDS011;43788;42.670;23.330;2023-03-23T08:03:46;2.60;;;2.42;;
57985;SDS011;43788;42.670;23.330;2023-03-23T08:06:12;2.38;;;2.17;;
57985;SDS011;43788;42.670;23.330;2023-03-23T08:08:38;2.60;;;2.40;;
57985;SDS011;43788;42.670;23.330;2023-03-23T08:11:05;3.65;;;2.00;;
57985;SDS011;43788;42.670;23.330;2023-03-23T08:13:33;2.78;;;2.35;;
57985;SDS011;43788;42.670;23.330;2023-03-23T08:15:59;2.78;;;2.08;;
57985;SDS011;43788;42.670;23.330;2023-03-23T08:18:28;1.77;;;1.67;;
57985;SDS011;43788;42.670;23.330;2023-03-23T08:20:58;5.47;;;1.90;;
57985;SDS011;43788;42.670;23.330;2023-03-23T08:23:24;2.50;;;2.30;;
57985;SDS011;43788;42.670;23.330;2023-03-23T08:25:49;2.40;;;2.17;;
57985;SDS011;43788;42.670;23.330;2023-03-23T08:31:08;2.00;;;1.90;;
57985;SDS011;43788;42.670;23.330;2023-03-23T08:33:36;2.38;;;2.00;;
57985;SDS011;43788;42.670;23.330;2023-03-23T08:36:02;5.85;;;2.03;;
57985;SDS011;43788;42.670;23.330;2023-03-23T08:38:28;1.70;;;1.58;;
57985;SDS011;43788;42.670;23.330;2023-03-23T08:40:58;1.95;;;1.40;;
57985;SDS011;43788;42.670;23.330;2023-03-23T08:43:48;1.17;;;1.17;;
57985;SDS011;43788;42.670;23.330;2023-03-23T08:46:14;0.80;;;0.80;;
57985;SDS011;43788;42.670;23.330;2023-03-23T08:48:40;0.90;;;0.90;;
57985;SDS011;43788;42.670;23.330;2023-03-23T08:51:07;0.85;;;0.85;;
57985;SDS011;43788;42.670;23.330;2023-03-23T08:53:33;0.70;;;0.70;;
57985;SDS011;43788;42.670;23.330;2023-03-23T08:56:03;1.48;;;1.10;;
57985;SDS011;43788;42.670;23.330;2023-03-23T09:01:27;1.60;;;0.60;;
57985;SDS011;43788;42.670;23.330;2023-03-23T09:03:53;0.77;;;0.77;;
57985;SDS011;43788;42.670;23.330;2023-03-23T09:06:19;1.20;;;1.10;;
57985;SDS011;43788;42.670;23.330;2023-03-23T10:03:14;0.52;;;0.52;;
57985;SDS011;43788;42.670;23.330;2023-03-23T10:08:20;0.60;;;0.60;;
57985;SDS011;43788;42.670;23.330;2023-03-23T10:10:55;0.52;;;0.52;;
57985;SDS011;43788;42.670;23.330;2023-03-23T10:16:55;0.47;;;0.47;;
57985;SDS011;43788;42.670;23.330;2023-03-23T10:19:29;0.65;;;0.65;;
57985;SDS011;43788;42.670;23.330;2023-03-23T10:22:18;0.80;;;0.80;;
57985;SDS011;43788;42.670;23.330;2023-03-23T10:25:16;0.93;;;0.93;;
57985;SDS011;43788;42.670;23.330;2023-03-23T10:27:48;0.60;;;0.60;;
57985;SDS011;43788;42.670;23.330;2023-03-23T10:30:32;0.60;;;0.60;;
57985;SDS011;43788;42.670;23.330;2023-03-23T10:33:02;0.68;;;0.68;;
57985;SDS011;43788;42.670;23.330;2023-03-23T10:35:33;0.85;;;0.85;;
57985;SDS011;43788;42.670;23.330;2023-03-23T10:38:22;0.93;;;0.80;;
57985;SDS011;43788;42.670;23.330;2023-03-23T10:41:00;1.08;;;0.80;;
57985;SDS011;43788;42.670;23.330;2023-03-23T10:43:36;0.77;;;0.70;;
57985;SDS011;43788;42.670;23.330;2023-03-23T10:46:05;1.13;;;0.80;;
57985;SDS011;43788;42.670;23.330;2023-03-23T10:48:41;0.60;;;0.60;;
57985;SDS011;43788;42.670;23.330;2023-03-23T10:51:10;0.85;;;0.85;;
57985;SDS011;43788;42.670;23.330;2023-03-23T10:53:59;1.58;;;1.05;;
57985;SDS011;43788;42.670;23.330;2023-03-23T10:59:11;0.82;;;0.82;;
57985;SDS011;43788;42.670;23.330;2023-03-23T11:01:49;0.70;;;0.70;;
57985;SDS011;43788;42.670;23.330;2023-03-23T11:04:18;0.68;;;0.68;;
57985;SDS011;43788;42.670;23.330;2023-03-23T11:06:45;0.70;;;0.70;;
57985;SDS011;43788;42.670;23.330;2023-03-23T11:09:14;0.70;;;0.70;;
57985;SDS011;43788;42.670;23.330;2023-03-23T11:11:43;1.05;;;0.98;;
57985;SDS011;43788;42.670;23.330;2023-03-23T11:14:16;0.90;;;0.70;;
57985;SDS011;43788;42.670;23.330;2023-03-23T11:16:50;0.60;;;0.60;;
57985;SDS011;43788;42.670;23.330;2023-03-23T11:19:27;0.65;;;0.65;;
57985;SDS011;43788;42.670;23.330;2023-03-23T11:24:36;0.80;;;0.80;;
57985;SDS011;43788;42.670;23.330;2023-03-23T11:27:06;0.55;;;0.55;;
57985;SDS011;43788;42.670;23.330;2023-03-23T11:29:34;0.70;;;0.70;;
57985;SDS011;43788;42.670;23.330;2023-03-23T11:34:30;0.60;;;0.60;;
57985;SDS011;43788;42.670;23.330;2023-03-23T11:39:30;0.50;;;0.50;;
57985;SDS011;43788;42.670;23.330;2023-03-23T11:41:57;0.60;;;0.60;;
57985;SDS011;43788;42.670;23.330;2023-03-23T11:44:31;0.50;;;0.50;;
57985;SDS011;43788;42.670;23.330;2023-03-23T11:47:08;1.00;;;0.73;;
57985;SDS011;43788;42.670;23.330;2023-03-23T11:58:15;0.43;;;0.43;;
57985;SDS011;43788;42.670;23.330;2023-03-23T12:00:49;0.65;;;0.65;;
57985;SDS011;43788;42.670;23.330;2023-03-23T12:06:09;1.88;;;0.90;;
57985;SDS011;43788;42.670;23.330;2023-03-23T12:08:49;0.55;;;0.55;;
57985;SDS011;43788;42.670;23.330;2023-03-23T12:22:13;0.68;;;0.68;;
57985;SDS011;43788;42.670;23.330;2023-03-23T12:37:07;1.10;;;0.57;;
57985;SDS011;43788;42.670;23.330;2023-03-23T12:42:04;0.50;;;0.50;;
57985;SDS011;43788;42.670;23.330;2023-03-23T12:44:46;0.70;;;0.70;;
57985;SDS011;43788;42.670;23.330;2023-03-23T12:49:46;0.50;;;0.50;;
57985;SDS011;43788;42.670;23.330;2023-03-23T12:54:54;0.80;;;0.70;;
57985;SDS011;43788;42.670;23.330;2023-03-23T13:03:37;0.57;;;0.57;;
57985;SDS011;43788;42.670;23.330;2023-03-23T13:06:17;0.47;;;0.47;;
57985;SDS011;43788;42.670;23.330;2023-03-23T13:08:49;0.60;;;0.60;;
57985;SDS011;43788;42.670;23.330;2023-03-23T13:11:26;0.70;;;0.70;;
57985;SDS011;43788;42.670;23.330;2023-03-23T13:14:03;0.40;;;0.40;;
57985;SDS011;43788;42.670;23.330;2023-03-23T13:19:33;0.50;;;0.50;;
57985;SDS011;43788;42.670;23.330;2023-03-23T13:25:19;0.63;;;0.63;;
57985;SDS011;43788;42.670;23.330;2023-03-23T13:27:58;0.60;;;0.60;;
57985;SDS011;43788;42.670;23.330;2023-03-23T13:30:26;0.45;;;0.45;;
57985;SDS011;43788;42.670;23.330;2023-03-23T13:33:03;0.40;;;0.40;;
57985;SDS011;43788;42.670;23.330;2023-03-23T13:35:36;0.45;;;0.45;;
57985;SDS011;43788;42.670;23.330;2023-03-23T13:38:21;0.45;;;0.45;;
57985;SDS011;43788;42.670;23.330;2023-03-23T13:40:49;1.25;;;0.85;;
57985;SDS011;43788;42.670;23.330;2023-03-23T13:43:29;0.40;;;0.40;;
57985;SDS011;43788;42.670;23.330;2023-03-23T13:48:48;0.50;;;0.50;;
57985;SDS011;43788;42.670;23.330;2023-03-23T13:51:23;0.60;;;0.60;;
57985;SDS011;43788;42.670;23.330;2023-03-23T13:56:52;0.80;;;0.80;;
57985;SDS011;43788;42.670;23.330;2023-03-23T13:59:31;0.85;;;0.55;;
57985;SDS011;43788;42.670;23.330;2023-03-23T14:04:54;0.52;;;0.50;;
57985;SDS011;43788;42.670;23.330;2023-03-23T14:07:20;0.55;;;0.50;;
57985;SDS011;43788;42.670;23.330;2023-03-23T14:09:46;0.50;;;0.50;;
57985;SDS011;43788;42.670;23.330;2023-03-23T14:12:20;0.70;;;0.70;;
57985;SDS011;43788;42.670;23.330;2023-03-23T14:14:49;0.45;;;0.45;;
57985;SDS011;43788;42.670;23.330;2023-03-23T14:19:48;0.50;;;0.50;;
57985;SDS011;43788;42.670;23.330;2023-03-23T14:22:17;0.50;;;0.50;;
57985;SDS011;43788;42.670;23.330;2023-03-23T14:25:08;0.50;;;0.50;;
57985;SDS011;43788;42.670;23.330;2023-03-23T14:27:39;0.40;;;0.40;;
57985;SDS011;43788;42.670;23.330;2023-03-23T14:30:14;0.43;;;0.43;;
57985;SDS011;43788;42.670;23.330;2023-03-23T14:32:48;0.50;;;0.50;;
57985;SDS011;43788;42.670;23.330;2023-03-23T14:35:18;0.40;;;0.40;;
57985;SDS011;43788;42.670;23.330;2023-03-23T14:37:54;0.50;;;0.50;;
57985;SDS011;43788;42.670;23.330;2023-03-23T14:40:20;1.08;;;0.80;;
57985;SDS011;43788;42.670;23.330;2023-03-23T14:42:46;0.50;;;0.50;;
57985;SDS011;43788;42.670;23.330;2023-03-23T14:45:14;0.93;;;0.60;;
57985;SDS011;43788;42.670;23.330;2023-03-23T14:47:46;0.77;;;0.77;;
57985;SDS011;43788;42.670;23.330;2023-03-23T14:50:22;0.73;;;0.70;;
57985;SDS011;43788;42.670;23.330;2023-03-23T14:56:23;0.50;;;0.50;;
57985;SDS011;43788;42.670;23.330;2023-03-23T14:58:53;2.40;;;0.57;;
57985;SDS011;43788;42.670;23.330;2023-03-23T15:01:20;0.47;;;0.47;;
57985;SDS011;43788;42.670;23.330;2023-03-23T15:03:57;0.50;;;0.47;;
57985;SDS011;43788;42.670;23.330;2023-03-23T15:06:26;0.57;;;0.57;;
57985;SDS011;43788;42.670;23.330;2023-03-23T15:08:56;1.35;;;0.70;;
57985;SDS011;43788;42.670;23.330;2023-03-23T15:13:58;0.47;;;0.47;;
57985;SDS011;43788;42.670;23.330;2023-03-23T15:18:56;2.63;;;0.85;;
57985;SDS011;43788;42.670;23.330;2023-03-23T15:21:26;0.50;;;0.50;;
57985;SDS011;43788;42.670;23.330;2023-03-23T15:23:53;0.40;;;0.40;;
57985;SDS011;43788;42.670;23.330;2023-03-23T15:26:25;0.60;;;0.60;;
57985;SDS011;43788;42.670;23.330;2023-03-23T15:34:48;0.95;;;0.55;;
57985;SDS011;43788;42.670;23.330;2023-03-23T15:37:27;3.80;;;0.57;;
57985;SDS011;43788;42.670;23.330;2023-03-23T15:39:55;0.50;;;0.50;;
57985;SDS011;43788;42.670;23.330;2023-03-23T15:42:27;0.43;;;0.43;;
57985;SDS011;43788;42.670;23.330;2023-03-23T15:44:57;0.77;;;0.63;;
57985;SDS011;43788;42.670;23.330;2023-03-23T15:50:50;0.70;;;0.70;;
57985;SDS011;43788;42.670;23.330;2023-03-23T15:52:56;0.80;;;0.70;;
57985;SDS011;43788;42.670;23.330;2023-03-23T15:55:28;0.60;;;0.60;;
57985;SDS011;43788;42.670;23.330;2023-03-23T15:58:00;0.50;;;0.50;;
57985;SDS011;43788;42.670;23.330;2023-03-23T16:00:26;0.50;;;0.50;;
57985;SDS011;43788;42.670;23.330;2023-03-23T16:03:01;0.55;;;0.52;;
57985;SDS011;43788;42.670;23.330;2023-03-23T16:05:29;0.90;;;0.80;;
57985;SDS011;43788;42.670;23.330;2023-03-23T16:07:55;0.43;;;0.43;;
57985;SDS011;43788;42.670;23.330;2023-03-23T16:10:21;1.38;;;0.90;;
57985;SDS011;43788;42.670;23.330;2023-03-23T16:12:50;0.60;;;0.60;;
57985;SDS011;43788;42.670;23.330;2023-03-23T16:15:16;0.85;;;0.57;;
57985;SDS011;43788;42.670;23.330;2023-03-23T16:17:44;0.82;;;0.70;;
57985;SDS011;43788;42.670;23.330;2023-03-23T16:20:11;0.50;;;0.50;;
57985;SDS011;43788;42.670;23.330;2023-03-23T16:22:47;1.13;;;0.60;;
57985;SDS011;43788;42.670;23.330;2023-03-23T16:25:13;0.50;;;0.50;;
57985;SDS011;43788;42.670;23.330;2023-03-23T16:27:39;0.40;;;0.40;;
57985;SDS011;43788;42.670;23.330;2023-03-23T16:30:17;0.70;;;0.70;;
57985;SDS011;43788;42.670;23.330;2023-03-23T16:32:45;0.68;;;0.60;;
57985;SDS011;43788;42.670;23.330;2023-03-23T16:35:12;0.43;;;0.43;;
57985;SDS011;43788;42.670;23.330;2023-03-23T16:37:43;0.40;;;0.40;;
57985;SDS011;43788;42.670;23.330;2023-03-23T16:40:12;0.50;;;0.50;;
57985;SDS011;43788;42.670;23.330;2023-03-23T16:42:41;0.50;;;0.50;;
57985;SDS011;43788;42.670;23.330;2023-03-23T16:45:07;0.60;;;0.60;;
57985;SDS011;43788;42.670;23.330;2023-03-23T16:47:33;0.60;;;0.60;;
57985;SDS011;43788;42.670;23.330;2023-03-23T16:49:59;0.43;;;0.43;;
57985;SDS011;43788;42.670;23.330;2023-03-23T16:52:24;0.60;;;0.60;;
57985;SDS011;43788;42.670;23.330;2023-03-23T16:54:51;0.85;;;0.75;;
57985;SDS011;43788;42.670;23.330;2023-03-23T16:57:17;0.38;;;0.38;;
57985;SDS011;43788;42.670;23.330;2023-03-23T16:59:42;2.03;;;0.73;;
57985;SDS011;43788;42.670;23.330;2023-03-23T17:02:09;1.13;;;0.55;;
57985;SDS011;43788;42.670;23.330;2023-03-23T17:04:36;1.48;;;0.57;;
57985;SDS011;43788;42.670;23.330;2023-03-23T17:07:03;0.65;;;0.65;;
57985;SDS011;43788;42.670;23.330;2023-03-23T17:09:30;0.40;;;0.40;;
57985;SDS011;43788;42.670;23.330;2023-03-23T17:11:56;0.90;;;0.65;;
57985;SDS011;43788;42.670;23.330;2023-03-23T17:14:21;0.43;;;0.40;;
57985;SDS011;43788;42.670;23.330;2023-03-23T17:16:47;0.82;;;0.60;;
57985;SDS011;43788;42.670;23.330;2023-03-23T17:19:12;0.47;;;0.47;;
57985;SDS011;43788;42.670;23.330;2023-03-23T17:21:39;0.60;;;0.60;;
57985;SDS011;43788;42.670;23.330;2023-03-23T17:24:05;2.15;;;0.80;;
57985;SDS011;43788;42.670;23.330;2023-03-23T17:26:31;0.60;;;0.60;;
57985;SDS011;43788;42.670;23.330;2023-03-23T17:28:57;0.82;;;0.82;;
57985;SDS011;43788;42.670;23.330;2023-03-23T17:31:22;1.10;;;0.80;;
57985;SDS011;43788;42.670;23.330;2023-03-23T17:33:48;0.50;;;0.50;;
57985;SDS011;43788;42.670;23.330;2023-03-23T17:36:14;14.65;;;1.05;;
57985;SDS011;43788;42.670;23.330;2023-03-23T17:38:39;1.25;;;0.77;;
57985;SDS011;43788;42.670;23.330;2023-03-23T17:41:05;1.63;;;0.85;;
57985;SDS011;43788;42.670;23.330;2023-03-23T17:43:32;0.77;;;0.77;;
57985;SDS011;43788;42.670;23.330;2023-03-23T17:45:59;1.27;;;0.77;;
57985;SDS011;43788;42.670;23.330;2023-03-23T17:48:25;0.63;;;0.52;;
57985;SDS011;43788;42.670;23.330;2023-03-23T17:50:52;0.95;;;0.80;;